createdAt,value
2023-01-04T00:01:38.272Z,1.92
2023-01-04T00:04:05.543Z,1.58
2023-01-04T00:06:32.919Z,2.00
2023-01-04T00:08:59.914Z,2.20
2023-01-04T00:11:27.907Z,1.90
2023-01-04T00:13:59.368Z,1.77
2023-01-04T00:16:28.852Z,2.03
2023-01-04T00:18:57.033Z,1.80
2023-01-04T00:21:30.709Z,1.92
2023-01-04T00:24:00.662Z,2.10
2023-01-04T00:26:34.453Z,2.42
2023-01-04T00:29:06.715Z,2.30
2023-01-04T00:31:35.216Z,2.15
2023-01-04T00:34:04.961Z,2.03
2023-01-04T00:36:33.328Z,2.42
2023-01-04T00:39:09.717Z,2.53
2023-01-04T00:42:07.172Z,2.65
2023-01-04T00:44:35.110Z,2.40
2023-01-04T00:47:04.496Z,2.35
2023-01-04T00:49:32.335Z,2.80
2023-01-04T00:51:59.504Z,2.53
2023-01-04T00:54:28.273Z,2.15
2023-01-04T00:56:55.317Z,2.10
2023-01-04T00:59:23.133Z,2.33
2023-01-04T01:01:51.219Z,2.60
2023-01-04T01:04:22.244Z,2.90
2023-01-04T01:06:51.091Z,2.72
2023-01-04T01:09:18.491Z,3.03
2023-01-04T01:11:45.590Z,2.88
2023-01-04T01:14:22.385Z,2.90
2023-01-04T01:16:55.773Z,3.33
2023-01-04T01:19:29.956Z,3.25
2023-01-04T01:21:58.323Z,3.60
2023-01-04T01:24:27.028Z,3.70
2023-01-04T01:26:54.814Z,3.47
2023-01-04T01:29:21.959Z,3.70
2023-01-04T01:31:49.030Z,3.58
2023-01-04T01:34:16.076Z,3.95
2023-01-04T01:36:45.831Z,3.60
2023-01-04T01:39:13.177Z,3.47
2023-01-04T01:41:40.239Z,3.50
2023-01-04T01:44:42.627Z,4.10
2023-01-04T01:47:21.606Z,3.63
2023-01-04T01:49:53.526Z,3.42
2023-01-04T01:52:38.413Z,4.55
2023-01-04T01:55:11.377Z,5.43
2023-01-04T01:57:39.950Z,4.18
2023-01-04T02:00:14.996Z,4.30
2023-01-04T02:03:14.802Z,4.13
2023-01-04T02:05:43.991Z,4.50
2023-01-04T02:08:13.457Z,4.07
2023-01-04T02:10:40.597Z,3.97
2023-01-04T02:13:16.878Z,3.85
2023-01-04T02:16:10.052Z,4.28
2023-01-04T02:18:51.583Z,3.85
2023-01-04T02:21:32.339Z,3.75
2023-01-04T02:24:20.320Z,4.50
2023-01-04T02:27:38.408Z,4.03
2023-01-04T02:30:55.921Z,3.50
2023-01-04T02:33:45.654Z,3.90
2023-01-04T02:36:31.988Z,4.25
2023-01-04T02:39:24.059Z,4.10
2023-01-04T02:42:04.476Z,4.22
2023-01-04T02:44:57.409Z,3.72
2023-01-04T02:47:57.728Z,4.00
2023-01-04T02:50:36.804Z,3.78
2023-01-04T02:53:17.675Z,4.00
2023-01-04T02:56:35.544Z,4.70
2023-01-04T02:59:45.803Z,4.32
2023-01-04T03:02:51.530Z,3.90
2023-01-04T03:06:13.680Z,4.88
2023-01-04T03:09:14.573Z,3.45
2023-01-04T03:12:06.540Z,3.53
2023-01-04T03:14:46.757Z,4.07
2023-01-04T03:17:19.934Z,4.13
2023-01-04T03:19:54.954Z,4.03
2023-01-04T03:23:02.046Z,3.63
2023-01-04T03:25:55.535Z,4.00
2023-01-04T03:28:46.334Z,3.72
2023-01-04T03:31:51.783Z,3.83
2023-01-04T03:34:38.316Z,3.78
2023-01-04T03:38:13.021Z,4.10
2023-01-04T03:41:05.355Z,3.50
2023-01-04T03:44:09.505Z,4.30
2023-01-04T03:47:08.153Z,3.75
2023-01-04T03:49:58.044Z,4.20
2023-01-04T03:52:30.492Z,4.10
2023-01-04T03:57:26.931Z,3.80
2023-01-04T04:00:02.275Z,4.78
2023-01-04T04:02:34.857Z,4.32
2023-01-04T04:05:21.701Z,4.50
2023-01-04T04:08:07.296Z,4.20
2023-01-04T04:10:34.318Z,5.20
2023-01-04T04:13:01.281Z,5.30
2023-01-04T04:15:28.327Z,5.47
2023-01-04T04:17:55.337Z,5.93
2023-01-04T04:20:22.419Z,6.35
2023-01-04T04:22:49.547Z,6.25
2023-01-04T04:25:16.621Z,6.38
2023-01-04T04:27:44.720Z,7.05
2023-01-04T04:30:12.078Z,6.70
2023-01-04T04:32:39.303Z,8.50
2023-01-04T04:35:06.616Z,7.25
2023-01-04T04:37:34.958Z,7.78
2023-01-04T04:40:02.329Z,7.43
2023-01-04T04:42:29.307Z,7.43
2023-01-04T04:44:56.627Z,7.82
2023-01-04T04:47:24.067Z,8.60
2023-01-04T04:49:51.868Z,8.52
2023-01-04T04:52:18.857Z,8.07
2023-01-04T04:54:46.055Z,7.97
2023-01-04T04:57:13.402Z,7.85
2023-01-04T04:59:40.691Z,8.63
2023-01-04T05:02:08.058Z,8.48
2023-01-04T05:04:35.298Z,8.95
2023-01-04T05:07:04.992Z,8.63
2023-01-04T05:09:38.778Z,10.15
2023-01-04T05:12:24.392Z,9.20
2023-01-04T05:14:53.554Z,9.95
2023-01-04T05:17:20.495Z,10.82
2023-01-04T05:19:47.567Z,10.15
2023-01-04T05:22:14.635Z,11.02
2023-01-04T05:24:41.646Z,10.35
2023-01-04T05:27:08.594Z,10.07
2023-01-04T05:29:54.198Z,9.88
2023-01-04T05:32:21.222Z,10.00
2023-01-04T05:34:48.214Z,9.38
2023-01-04T05:37:15.513Z,8.75
2023-01-04T05:39:42.554Z,10.52
2023-01-04T05:42:28.415Z,8.75
2023-01-04T05:44:57.899Z,9.77
2023-01-04T05:47:26.637Z,9.95
2023-01-04T05:49:53.687Z,9.48
2023-01-04T05:52:20.875Z,9.00
2023-01-04T05:54:47.940Z,8.20
2023-01-04T05:57:15.593Z,8.48
2023-01-04T05:59:42.961Z,8.52
2023-01-04T06:02:24.447Z,8.80
2023-01-04T06:04:58.486Z,8.85
2023-01-04T06:07:27.772Z,8.40
2023-01-04T06:09:55.925Z,8.75
2023-01-04T06:12:23.021Z,8.30
2023-01-04T06:14:50.023Z,8.57
2023-01-04T06:17:17.428Z,8.57
2023-01-04T06:19:44.583Z,8.05
2023-01-04T06:22:11.724Z,8.35
2023-01-04T06:24:38.755Z,6.70
2023-01-04T06:27:05.864Z,7.72
2023-01-04T06:29:43.347Z,7.60
2023-01-04T06:32:10.941Z,7.30
2023-01-04T06:34:38.189Z,8.18
2023-01-04T06:37:06.554Z,7.07
2023-01-04T06:39:33.744Z,7.47
2023-01-04T06:42:06.378Z,7.03
2023-01-04T06:45:13.660Z,7.53
2023-01-04T06:47:44.801Z,6.90
2023-01-04T06:54:15.854Z,6.82
2023-01-04T06:56:42.974Z,6.80
2023-01-04T06:59:10.182Z,7.40
2023-01-04T07:01:37.462Z,7.97
2023-01-04T07:04:06.474Z,7.28
2023-01-04T07:06:39.515Z,8.00
2023-01-04T07:18:10.938Z,6.88
2023-01-04T07:20:39.178Z,7.22
2023-01-04T07:23:07.777Z,7.00
2023-01-04T07:25:35.059Z,8.60
2023-01-04T07:28:02.268Z,8.93
2023-01-04T07:30:29.774Z,8.40
2023-01-04T07:32:57.445Z,7.63
2023-01-04T07:35:27.013Z,7.38
2023-01-04T07:37:58.775Z,4.82
2023-01-04T07:40:27.647Z,1.85
2023-01-04T07:43:00.016Z,2.70
2023-01-04T07:45:27.884Z,1.60
2023-01-04T07:47:55.237Z,1.30
2023-01-04T07:50:26.150Z,1.50
2023-01-04T07:52:53.759Z,1.38
2023-01-04T07:55:20.831Z,1.38
2023-01-04T07:57:47.835Z,1.15
2023-01-04T08:00:20.994Z,1.10
2023-01-04T08:02:50.172Z,1.58
2023-01-04T08:05:17.332Z,1.02
2023-01-04T08:07:47.468Z,1.02
2023-01-04T08:10:17.858Z,1.27
2023-01-04T08:12:48.199Z,1.33
2023-01-04T08:15:15.451Z,1.10
2023-01-04T08:17:42.539Z,0.80
2023-01-04T08:20:10.457Z,0.75
2023-01-04T08:23:09.760Z,1.15
2023-01-04T08:25:46.776Z,0.88
2023-01-04T08:28:13.823Z,0.70
2023-01-04T08:30:42.088Z,1.00
2023-01-04T08:33:16.357Z,0.98
2023-01-04T08:35:43.362Z,0.90
2023-01-04T08:38:55.750Z,0.73
2023-01-04T08:40:58.639Z,0.75
2023-01-04T08:43:31.286Z,1.10
2023-01-04T08:45:58.461Z,1.15
2023-01-04T08:48:25.933Z,1.15
2023-01-04T08:50:53.013Z,0.68
2023-01-04T08:53:20.420Z,0.80
2023-01-04T08:55:52.561Z,0.90
2023-01-04T08:58:43.275Z,0.90
2023-01-04T09:01:11.526Z,1.13
2023-01-04T09:03:38.903Z,0.93
2023-01-04T09:06:13.425Z,0.60
2023-01-04T09:08:42.873Z,0.95
2023-01-04T09:11:17.541Z,0.73
2023-01-04T09:13:47.024Z,0.63
2023-01-04T09:16:18.091Z,0.70
2023-01-04T09:18:46.853Z,0.88
2023-01-04T09:21:23.031Z,0.50
2023-01-04T09:23:53.477Z,0.70
2023-01-04T09:26:23.694Z,0.80
2023-01-04T09:28:53.788Z,0.52
2023-01-04T09:31:24.551Z,0.40
2023-01-04T09:36:39.746Z,0.50
2023-01-04T09:39:07.341Z,0.77
2023-01-04T09:41:49.029Z,0.73
2023-01-04T09:44:54.408Z,0.80
2023-01-04T09:47:33.068Z,0.68
2023-01-04T09:50:27.618Z,0.70
2023-01-04T09:53:16.929Z,0.45
2023-01-04T09:55:50.564Z,0.60
2023-01-04T09:58:42.539Z,0.80
2023-01-04T10:01:24.175Z,0.80
2023-01-04T10:04:00.419Z,0.70
2023-01-04T10:06:35.621Z,0.60
2023-01-04T10:09:10.985Z,0.75
2023-01-04T10:12:14.625Z,0.68
2023-01-04T10:15:11.063Z,0.60
2023-01-04T10:21:48.404Z,2.15
2023-01-04T10:24:56.028Z,0.30
2023-01-04T10:28:01.318Z,0.50
2023-01-04T10:30:59.938Z,0.88
2023-01-04T10:34:28.349Z,0.75
2023-01-04T10:45:13.750Z,0.60
2023-01-04T10:48:14.756Z,0.43
2023-01-04T10:51:10.496Z,0.70
2023-01-04T10:53:37.895Z,1.30
2023-01-04T10:56:27.449Z,0.90
2023-01-04T10:59:07.386Z,0.52
2023-01-04T11:02:09.866Z,0.88
2023-01-04T11:05:12.194Z,1.15
2023-01-04T11:08:10.294Z,0.95
2023-01-04T11:10:50.791Z,0.73
2023-01-04T11:13:18.362Z,0.82
2023-01-04T11:15:47.828Z,0.90
2023-01-04T11:18:17.086Z,0.95
2023-01-04T11:20:44.478Z,0.70
2023-01-04T11:23:18.146Z,0.68
2023-01-04T11:26:05.988Z,0.63
2023-01-04T11:28:47.340Z,1.00
2023-01-04T11:31:29.679Z,1.08
2023-01-04T11:34:02.959Z,1.10
2023-01-04T11:36:43.461Z,0.80
2023-01-04T11:39:22.084Z,0.95
2023-01-04T11:42:04.596Z,0.98
2023-01-04T11:44:36.176Z,1.00
2023-01-04T11:47:19.690Z,0.90
2023-01-04T11:49:48.216Z,0.73
2023-01-04T11:52:27.226Z,0.57
2023-01-04T11:54:54.837Z,0.93
2023-01-04T11:57:21.982Z,1.25
2023-01-04T12:00:15.608Z,0.90
2023-01-04T12:05:32.147Z,1.00
2023-01-04T12:07:59.605Z,1.30
2023-01-04T12:10:28.271Z,0.95
2023-01-04T12:12:59.651Z,0.70
2023-01-04T12:16:23.350Z,1.05
2023-01-04T12:18:50.771Z,1.00
2023-01-04T12:21:25.671Z,1.15
2023-01-04T12:23:55.936Z,1.20
2023-01-04T12:26:23.663Z,0.85
2023-01-04T12:29:24.870Z,0.70
2023-01-04T12:32:07.140Z,0.80
2023-01-04T12:34:34.423Z,1.10
2023-01-04T12:37:06.403Z,1.20
2023-01-04T12:39:42.883Z,1.20
2023-01-04T12:42:19.252Z,1.00
2023-01-04T12:44:47.008Z,1.63
2023-01-04T12:47:38.663Z,1.65
2023-01-04T12:50:13.498Z,1.27
2023-01-04T12:55:44.875Z,0.70
2023-01-04T13:02:16.253Z,0.80
2023-01-04T13:04:43.926Z,1.30
2023-01-04T13:07:41.064Z,1.08
2023-01-04T13:10:36.043Z,0.88
2023-01-04T13:13:43.536Z,0.60
2023-01-04T13:16:13.161Z,1.15
2023-01-04T13:18:56.553Z,1.10
2023-01-04T13:21:38.649Z,1.40
2023-01-04T13:24:34.373Z,0.90
2023-01-04T13:27:14.841Z,0.75
2023-01-04T13:29:42.671Z,1.00
2023-01-04T13:32:28.979Z,0.68
2023-01-04T13:35:17.426Z,0.73
2023-01-04T13:37:51.458Z,0.77
2023-01-04T13:40:27.267Z,0.77
2023-01-04T13:43:03.107Z,0.73
2023-01-04T13:46:10.265Z,0.73
2023-01-04T13:48:42.346Z,0.80
2023-01-04T13:51:23.311Z,0.63
2023-01-04T13:54:06.510Z,0.80
2023-01-04T13:56:34.980Z,0.82
2023-01-04T14:00:00.656Z,0.95
2023-01-04T14:02:29.587Z,0.70
2023-01-04T14:04:56.706Z,1.10
2023-01-04T14:07:25.383Z,0.90
2023-01-04T14:10:00.140Z,0.80
2023-01-04T14:12:29.134Z,1.00
2023-01-04T14:15:18.477Z,1.10
2023-01-04T14:17:51.129Z,1.27
2023-01-04T14:22:47.779Z,0.60
2023-01-04T14:25:33.610Z,0.80
2023-01-04T14:28:50.281Z,0.85
2023-01-04T14:31:25.593Z,0.70
2023-01-04T14:33:54.042Z,0.70
2023-01-04T14:36:34.274Z,0.70
2023-01-04T14:39:18.849Z,0.68
2023-01-04T14:41:48.969Z,0.80
2023-01-04T14:44:28.504Z,0.77
2023-01-04T14:50:17.729Z,0.70
2023-01-04T14:52:54.622Z,0.57
2023-01-04T14:55:23.695Z,0.60
2023-01-04T14:57:50.705Z,0.68
2023-01-04T15:00:19.754Z,0.88
2023-01-04T15:02:52.088Z,0.70
2023-01-04T15:05:22.765Z,0.90
2023-01-04T15:07:50.437Z,0.88
2023-01-04T15:10:36.064Z,0.80
2023-01-04T15:13:49.985Z,0.80
2023-01-04T15:16:18.835Z,0.73
2023-01-04T15:18:47.181Z,0.68
2023-01-04T15:21:14.639Z,0.70
2023-01-04T15:23:41.647Z,0.95
2023-01-04T15:26:11.599Z,1.00
2023-01-04T15:28:38.760Z,0.90
2023-01-04T15:31:09.361Z,0.90
2023-01-04T15:33:37.582Z,0.60
2023-01-04T15:36:15.063Z,0.70
2023-01-04T15:38:44.965Z,0.95
2023-01-04T15:41:36.526Z,0.73
2023-01-04T15:44:04.560Z,0.52
2023-01-04T15:46:31.821Z,0.60
2023-01-04T15:48:58.891Z,0.60
2023-01-04T15:51:26.146Z,0.82
2023-01-04T15:53:53.723Z,0.60
2023-01-04T15:56:21.724Z,1.00
2023-01-04T15:58:54.708Z,0.90
2023-01-04T16:01:22.861Z,0.73
2023-01-04T16:03:54.018Z,0.70
2023-01-04T16:06:22.196Z,0.93
2023-01-04T16:08:52.092Z,0.88
2023-01-04T16:11:22.974Z,0.60
2023-01-04T16:13:52.562Z,0.38
2023-01-04T16:16:22.664Z,0.68
2023-01-04T16:18:52.804Z,0.70
2023-01-04T16:21:28.246Z,0.80
2023-01-04T16:24:06.949Z,0.65
2023-01-04T16:26:40.161Z,0.70
2023-01-04T16:29:07.123Z,0.70
2023-01-04T16:31:36.684Z,1.08
2023-01-04T16:34:04.735Z,0.60
2023-01-04T16:36:32.271Z,0.73
2023-01-04T16:38:59.294Z,0.60
2023-01-04T16:41:26.443Z,1.08
2023-01-04T16:43:58.932Z,0.98
2023-01-04T16:49:25.799Z,0.60
2023-01-04T16:51:59.164Z,0.63
2023-01-04T16:54:29.455Z,0.60
2023-01-04T16:56:58.933Z,0.50
2023-01-04T16:59:26.254Z,0.40
2023-01-04T17:01:58.103Z,0.50
2023-01-04T17:04:25.798Z,0.63
2023-01-04T17:06:54.874Z,0.40
2023-01-04T17:09:22.546Z,0.70
2023-01-04T17:15:00.667Z,0.47
2023-01-04T17:17:34.749Z,0.50
2023-01-04T17:20:06.466Z,0.50
2023-01-04T17:22:35.251Z,0.70
2023-01-04T17:25:04.298Z,0.68
2023-01-04T17:27:31.301Z,0.60
2023-01-04T17:29:58.227Z,0.50
2023-01-04T17:32:25.273Z,0.85
2023-01-04T17:34:52.498Z,0.52
2023-01-04T17:37:19.481Z,0.95
2023-01-04T17:39:46.456Z,0.52
2023-01-04T17:42:13.563Z,0.50
2023-01-04T17:44:40.530Z,0.70
2023-01-04T17:47:07.600Z,0.70
2023-01-04T17:49:34.519Z,0.80
2023-01-04T17:52:01.798Z,0.90
2023-01-04T17:54:28.731Z,0.60
2023-01-04T17:56:55.656Z,0.50
2023-01-04T17:59:22.969Z,0.68
2023-01-04T18:01:50.296Z,0.50
2023-01-04T18:04:17.400Z,0.43
2023-01-04T18:06:44.374Z,0.93
2023-01-04T18:09:14.383Z,0.60
2023-01-04T18:11:44.497Z,0.57
2023-01-04T18:14:14.106Z,0.55
2023-01-04T18:16:57.453Z,0.40
2023-01-04T18:19:30.219Z,0.50
2023-01-04T18:21:58.588Z,0.45
2023-01-04T18:24:37.344Z,0.40
2023-01-04T18:27:22.607Z,0.40
2023-01-04T18:29:53.167Z,0.60
2023-01-04T18:32:21.540Z,0.50
2023-01-04T18:34:48.600Z,0.45
2023-01-04T18:37:16.555Z,0.40
2023-01-04T18:39:43.969Z,0.40
2023-01-04T18:42:11.019Z,0.40
2023-01-04T18:44:41.209Z,0.45
2023-01-04T18:47:15.682Z,0.50
2023-01-04T18:49:42.599Z,0.40
2023-01-04T18:52:09.609Z,0.40
2023-01-04T18:54:36.616Z,0.38
2023-01-04T18:57:05.015Z,0.38
2023-01-04T18:59:33.040Z,0.52
2023-01-04T19:02:01.489Z,0.30
2023-01-04T19:04:34.925Z,0.30
2023-01-04T19:07:02.303Z,0.20
2023-01-04T19:09:29.393Z,0.40
2023-01-04T19:11:56.423Z,0.25
2023-01-04T19:14:23.384Z,0.47
2023-01-04T19:16:50.542Z,0.20
2023-01-04T19:19:17.518Z,0.30
2023-01-04T19:21:44.891Z,0.38
2023-01-04T19:24:12.271Z,0.22
2023-01-04T19:26:39.665Z,0.60
2023-01-04T19:29:08.601Z,0.30
2023-01-04T19:31:36.206Z,0.40
2023-01-04T19:34:03.380Z,0.50
2023-01-04T19:36:30.550Z,0.30
2023-01-04T19:38:58.545Z,0.43
2023-01-04T19:41:33.977Z,0.40
2023-01-04T19:44:11.388Z,0.40
2023-01-04T19:46:40.626Z,0.30
2023-01-04T19:49:14.814Z,0.20
2023-01-04T19:52:02.806Z,0.28
2023-01-04T19:54:41.525Z,0.50
2023-01-04T19:57:21.462Z,0.40
2023-01-04T20:00:50.741Z,0.40
2023-01-04T20:03:30.699Z,0.50
2023-01-04T20:06:03.989Z,0.40
2023-01-04T20:08:34.208Z,0.30
2023-01-04T20:11:04.980Z,0.30
2023-01-04T20:13:33.700Z,0.30
2023-01-04T20:16:04.103Z,0.20
2023-01-04T20:18:33.003Z,0.22
2023-01-04T20:21:00.521Z,0.30
2023-01-04T20:23:28.015Z,0.40
2023-01-04T20:25:55.616Z,0.30
2023-01-04T20:28:24.981Z,0.40
2023-01-04T20:31:07.098Z,0.20
2023-01-04T20:33:35.069Z,0.30
2023-01-04T20:36:08.796Z,0.30
2023-01-04T20:38:41.471Z,0.50
2023-01-04T20:41:16.203Z,0.22
2023-01-04T20:43:46.462Z,0.32
2023-01-04T20:46:17.543Z,0.40
2023-01-04T20:48:45.580Z,0.30
2023-01-04T20:51:20.849Z,0.32
2023-01-04T20:53:48.622Z,0.50
2023-01-04T20:56:23.872Z,0.30
2023-01-04T20:58:51.744Z,0.38
2023-01-04T21:01:21.721Z,0.30
2023-01-04T21:03:49.560Z,0.93
2023-01-04T21:06:18.558Z,0.20
2023-01-04T21:08:46.581Z,0.32
2023-01-04T21:11:14.323Z,0.30
2023-01-04T21:13:41.649Z,0.40
2023-01-04T21:16:10.146Z,0.30
2023-01-04T21:18:38.429Z,0.35
2023-01-04T21:21:14.370Z,0.30
2023-01-04T21:23:43.621Z,0.35
2023-01-04T21:26:18.207Z,0.30
2023-01-04T21:28:46.658Z,0.30
2023-01-04T21:31:23.851Z,0.30
2023-01-04T21:33:53.567Z,0.20
2023-01-04T21:36:25.245Z,0.30
2023-01-04T21:38:56.180Z,0.40
2023-01-04T21:41:25.606Z,0.10
2023-01-04T21:43:57.014Z,0.40
2023-01-04T21:46:25.947Z,0.30
2023-01-04T21:48:59.285Z,0.25
2023-01-04T21:51:26.532Z,0.70
2023-01-04T21:54:23.966Z,0.20
2023-01-04T21:56:51.327Z,0.50
2023-01-04T21:59:18.279Z,0.30
2023-01-04T22:01:45.718Z,0.50
2023-01-04T22:04:12.772Z,0.40
2023-01-04T22:06:41.539Z,0.20
2023-01-04T22:09:08.539Z,0.30
2023-01-04T22:11:45.146Z,0.30
2023-01-04T22:14:12.182Z,0.55
2023-01-04T22:16:39.907Z,0.30
2023-01-04T22:19:06.846Z,0.45
2023-01-04T22:21:34.127Z,0.30
2023-01-04T22:24:01.204Z,0.38
2023-01-04T22:26:28.219Z,0.40
2023-01-04T22:28:55.372Z,0.75
2023-01-04T22:31:22.697Z,0.30
2023-01-04T22:33:49.823Z,0.80
2023-01-04T22:36:23.020Z,0.40
2023-01-04T22:38:55.657Z,0.73
2023-01-04T22:41:27.194Z,0.70
2023-01-04T22:44:00.889Z,0.60
2023-01-04T22:46:33.776Z,0.40
2023-01-04T22:49:01.974Z,1.20
2023-01-04T22:51:31.155Z,0.50
2023-01-04T22:54:02.198Z,0.90
2023-01-04T22:56:29.793Z,0.50
2023-01-04T22:58:58.400Z,0.68
2023-01-04T23:01:31.400Z,0.90
2023-01-04T23:04:02.350Z,0.68
2023-01-04T23:06:31.837Z,0.70
2023-01-04T23:09:05.708Z,0.70
2023-01-04T23:11:35.328Z,0.70
2023-01-04T23:14:07.343Z,0.70
2023-01-04T23:17:17.125Z,0.75
2023-01-04T23:20:10.419Z,0.80
2023-01-04T23:22:33.297Z,0.77
2023-01-04T23:25:00.345Z,0.70
2023-01-04T23:27:27.915Z,0.65
2023-01-04T23:34:40.743Z,0.40
2023-01-04T23:37:12.423Z,0.63
2023-01-04T23:39:52.075Z,0.50
2023-01-04T23:42:42.090Z,0.60
2023-01-04T23:45:12.429Z,0.70
2023-01-04T23:47:39.578Z,0.68
2023-01-04T23:51:10.060Z,0.55
2023-01-04T23:54:55.768Z,0.70
2023-01-04T23:57:22.847Z,0.40
2023-01-04T23:59:49.957Z,0.43
